createdAt,value
2019-05-19T00:01:05.146Z,16.40
2019-05-19T00:03:34.790Z,16.40
2019-05-19T00:06:04.631Z,16.30
2019-05-19T00:08:34.152Z,16.20
2019-05-19T00:11:03.523Z,16.40
2019-05-19T00:13:33.146Z,16.20
2019-05-19T00:16:08.229Z,16.10
2019-05-19T00:18:37.888Z,16.20
2019-05-19T00:21:07.172Z,16.10
2019-05-19T00:23:36.701Z,15.90
2019-05-19T00:26:05.995Z,15.80
2019-05-19T00:28:35.714Z,15.90
2019-05-19T00:31:05.361Z,15.80
2019-05-19T00:33:34.762Z,15.80
2019-05-19T00:36:04.307Z,15.80
2019-05-19T00:38:33.522Z,15.60
2019-05-19T00:41:02.722Z,15.50
2019-05-19T00:43:31.975Z,15.50
2019-05-19T00:46:01.255Z,15.40
2019-05-19T00:48:30.529Z,15.30
2019-05-19T00:51:00.281Z,15.40
2019-05-19T00:53:30.670Z,15.40
2019-05-19T00:56:01.844Z,15.20
2019-05-19T00:58:33.405Z,15.10
2019-05-19T01:01:02.991Z,15.30
2019-05-19T01:03:32.507Z,15.30
2019-05-19T01:06:03.858Z,15.20
2019-05-19T01:08:33.417Z,15.00
2019-05-19T01:11:02.763Z,14.90
2019-05-19T01:13:32.027Z,14.80
2019-05-19T01:16:01.555Z,14.90
2019-05-19T01:18:30.836Z,14.80
2019-05-19T01:21:00.272Z,14.70
2019-05-19T01:23:29.519Z,14.70
2019-05-19T01:25:59.518Z,14.40
2019-05-19T01:28:29.135Z,14.40
2019-05-19T01:30:59.622Z,14.60
2019-05-19T01:33:28.940Z,14.60
2019-05-19T01:35:58.278Z,14.50
2019-05-19T01:38:27.576Z,14.40
2019-05-19T01:41:04.049Z,14.30
2019-05-19T01:43:33.757Z,14.40
2019-05-19T01:46:03.356Z,14.30
2019-05-19T01:48:34.831Z,14.30
2019-05-19T01:51:04.174Z,14.30
2019-05-19T01:57:03.956Z,14.20
2019-05-19T01:59:33.732Z,14.10
2019-05-19T02:02:03.349Z,14.10
2019-05-19T02:04:33.256Z,14.00
2019-05-19T02:07:02.570Z,13.90
2019-05-19T02:09:31.826Z,13.90
2019-05-19T02:12:01.703Z,14.00
2019-05-19T02:14:30.998Z,14.00
2019-05-19T02:17:00.718Z,14.00
2019-05-19T02:19:29.946Z,13.90
2019-05-19T02:21:59.814Z,13.80
2019-05-19T02:24:29.116Z,13.70
2019-05-19T02:26:58.768Z,13.70
2019-05-19T02:29:27.991Z,13.70
2019-05-19T02:31:57.524Z,13.00
2019-05-19T02:34:26.879Z,13.00
2019-05-19T02:36:56.363Z,13.20
2019-05-19T02:39:26.358Z,13.30
2019-05-19T02:41:57.174Z,13.30
2019-05-19T02:44:27.592Z,13.40
2019-05-19T02:46:59.032Z,13.30
2019-05-19T02:49:30.439Z,13.40
2019-05-19T02:52:01.881Z,13.40
2019-05-19T02:54:33.772Z,13.30
2019-05-19T02:57:04.254Z,13.10
2019-05-19T02:59:35.143Z,13.10
2019-05-19T03:02:07.368Z,13.20
2019-05-19T03:04:36.618Z,13.10
2019-05-19T03:07:06.510Z,13.00
2019-05-19T03:09:36.981Z,13.00
2019-05-19T03:12:08.800Z,13.00
2019-05-19T03:14:38.327Z,13.10
2019-05-19T03:17:07.610Z,13.00
2019-05-19T03:19:37.147Z,13.00
2019-05-19T03:22:06.388Z,13.00
2019-05-19T03:24:35.635Z,12.90
2019-05-19T03:27:05.259Z,12.80
2019-05-19T03:29:39.175Z,12.80
2019-05-19T03:32:27.748Z,12.70
2019-05-19T03:34:57.075Z,12.70
2019-05-19T03:37:26.769Z,12.70
2019-05-19T03:39:56.291Z,12.70
2019-05-19T03:42:25.642Z,12.80
2019-05-19T03:44:54.822Z,12.80
2019-05-19T03:47:27.532Z,12.70
2019-05-19T03:49:56.799Z,12.60
2019-05-19T03:52:26.226Z,12.60
2019-05-19T03:54:55.839Z,12.60
2019-05-19T03:57:25.019Z,12.70
2019-05-19T03:59:54.522Z,12.60
2019-05-19T04:02:23.932Z,12.70
2019-05-19T04:04:53.227Z,12.70
2019-05-19T04:07:24.528Z,12.60
2019-05-19T04:09:53.870Z,12.10
2019-05-19T04:12:23.532Z,12.30
2019-05-19T04:14:52.804Z,12.50
2019-05-19T04:17:22.027Z,12.40
2019-05-19T04:19:51.439Z,11.60
2019-05-19T04:22:20.730Z,12.20
2019-05-19T04:24:50.047Z,12.40
2019-05-19T04:27:19.946Z,12.70
2019-05-19T04:29:49.291Z,12.80
2019-05-19T04:32:18.537Z,12.50
2019-05-19T04:34:47.982Z,12.70
2019-05-19T04:37:18.741Z,12.90
2019-05-19T04:39:48.519Z,13.00
2019-05-19T04:42:17.871Z,13.10
2019-05-19T04:44:47.459Z,13.10
2019-05-19T04:47:18.945Z,13.30
2019-05-19T04:49:48.156Z,13.30
2019-05-19T04:52:17.363Z,13.40
2019-05-19T04:54:47.434Z,12.90
2019-05-19T04:57:16.839Z,13.00
2019-05-19T04:59:46.323Z,13.20
2019-05-19T05:02:15.531Z,13.00
2019-05-19T05:04:45.167Z,13.30
2019-05-19T05:07:14.400Z,13.50
2019-05-19T05:09:44.037Z,13.40
2019-05-19T05:12:13.211Z,13.70
2019-05-19T05:14:42.438Z,14.10
2019-05-19T05:17:11.955Z,13.90
2019-05-19T05:19:41.230Z,14.00
2019-05-19T05:22:21.831Z,14.20
2019-05-19T05:24:42.194Z,13.90
2019-05-19T05:27:11.416Z,14.40
2019-05-19T05:29:40.630Z,14.30
2019-05-19T05:32:09.894Z,14.50
2019-05-19T05:34:39.104Z,14.70
2019-05-19T05:37:09.446Z,14.80
2019-05-19T05:39:38.640Z,15.90
2019-05-19T05:42:17.168Z,16.70
2019-05-19T05:44:46.524Z,17.10
2019-05-19T05:47:15.848Z,16.20
2019-05-19T05:49:45.454Z,17.30
2019-05-19T05:52:15.158Z,17.40
2019-05-19T05:54:44.702Z,17.40
2019-05-19T05:57:16.260Z,17.90
2019-05-19T05:59:45.778Z,17.60
2019-05-19T06:02:18.383Z,17.20
2019-05-19T06:04:48.174Z,18.20
2019-05-19T06:07:17.731Z,18.10
2019-05-19T06:09:46.967Z,18.00
2019-05-19T06:12:16.907Z,18.70
2019-05-19T06:14:46.116Z,18.80
2019-05-19T06:17:15.577Z,16.90
2019-05-19T06:19:45.560Z,17.10
2019-05-19T06:22:14.770Z,17.50
2019-05-19T06:24:44.073Z,17.30
2019-05-19T06:27:13.473Z,16.50
2019-05-19T06:29:43.182Z,16.10
2019-05-19T06:32:20.093Z,18.40
2019-05-19T06:34:49.354Z,20.20
2019-05-19T06:37:18.954Z,19.70
2019-05-19T06:39:48.527Z,19.90
2019-05-19T06:42:17.790Z,18.50
2019-05-19T06:44:47.348Z,20.60
2019-05-19T06:47:17.637Z,21.50
2019-05-19T06:49:48.950Z,18.50
2019-05-19T06:52:18.315Z,19.70
2019-05-19T06:54:47.938Z,21.10
2019-05-19T06:57:17.195Z,21.00
2019-05-19T06:59:47.012Z,21.20
2019-05-19T07:02:16.674Z,22.70
2019-05-19T07:04:46.624Z,23.40
2019-05-19T07:07:16.254Z,23.30
2019-05-19T07:09:57.885Z,21.40
2019-05-19T07:12:18.577Z,22.70
2019-05-19T07:14:48.217Z,21.50
2019-05-19T07:17:19.842Z,21.70
2019-05-19T07:19:49.631Z,22.30
2019-05-19T07:22:18.869Z,21.10
2019-05-19T07:24:48.449Z,22.20
2019-05-19T07:27:26.716Z,23.30
2019-05-19T07:29:56.498Z,23.20
2019-05-19T07:32:26.155Z,23.50
2019-05-19T07:34:59.306Z,23.20
2019-05-19T07:37:28.886Z,24.30
2019-05-19T07:39:58.518Z,24.30
2019-05-19T07:42:28.119Z,24.50
2019-05-19T07:45:01.537Z,24.70
2019-05-19T07:47:30.859Z,24.30
2019-05-19T07:50:02.528Z,24.90
2019-05-19T07:52:31.141Z,24.70
2019-05-19T07:55:01.083Z,22.60
2019-05-19T07:57:31.904Z,24.90
2019-05-19T08:00:04.534Z,22.80
2019-05-19T08:02:33.981Z,23.90
2019-05-19T08:05:03.551Z,23.80
2019-05-19T08:07:32.773Z,24.60
2019-05-19T08:10:03.087Z,22.10
2019-05-19T08:12:32.909Z,25.30
2019-05-19T08:15:02.525Z,26.60
2019-05-19T08:17:31.856Z,26.40
2019-05-19T08:20:01.794Z,26.60
2019-05-19T08:22:31.127Z,24.40
2019-05-19T08:25:01.084Z,24.70
2019-05-19T08:27:30.630Z,26.00
2019-05-19T08:29:59.931Z,23.40
2019-05-19T08:32:29.632Z,26.30
2019-05-19T08:34:59.203Z,27.70
2019-05-19T08:37:28.510Z,28.40
2019-05-19T08:39:58.165Z,25.60
2019-05-19T08:42:27.436Z,27.80
2019-05-19T08:44:58.917Z,28.70
2019-05-19T08:47:28.310Z,29.30
2019-05-19T08:50:07.986Z,29.80
2019-05-19T08:52:37.375Z,29.80
2019-05-19T08:55:06.819Z,26.10
2019-05-19T08:57:37.446Z,26.30
2019-05-19T09:00:06.756Z,27.70
2019-05-19T09:02:36.150Z,26.90
2019-05-19T09:05:05.689Z,28.50
2019-05-19T09:07:35.150Z,29.20
2019-05-19T09:10:04.909Z,25.50
2019-05-19T09:12:34.368Z,25.30
2019-05-19T09:15:03.994Z,25.00
2019-05-19T09:17:34.190Z,28.00
2019-05-19T09:20:03.566Z,26.00
2019-05-19T09:22:34.896Z,28.00
2019-05-19T09:25:05.051Z,29.80
2019-05-19T09:27:35.813Z,28.60
2019-05-19T09:30:05.918Z,26.60
2019-05-19T09:32:35.282Z,28.40
2019-05-19T09:35:04.537Z,28.70
2019-05-19T09:37:34.505Z,29.60
2019-05-19T09:40:03.691Z,25.50
2019-05-19T09:42:32.972Z,27.70
2019-05-19T09:45:02.260Z,28.10
2019-05-19T09:47:31.818Z,27.50
2019-05-19T09:50:01.438Z,30.00
2019-05-19T09:52:32.113Z,29.90
2019-05-19T09:55:01.448Z,31.30
2019-05-19T09:57:30.703Z,28.20
2019-05-19T10:00:00.044Z,30.50
2019-05-19T10:02:29.413Z,29.70
2019-05-19T10:04:59.074Z,28.50
2019-05-19T10:07:28.616Z,27.60
2019-05-19T10:10:09.922Z,26.60
2019-05-19T10:12:39.351Z,29.80
2019-05-19T10:15:09.202Z,29.00
2019-05-19T10:17:38.913Z,31.60
2019-05-19T10:20:10.586Z,32.70
2019-05-19T10:22:40.466Z,30.50
2019-05-19T10:25:22.184Z,31.80
2019-05-19T10:27:46.635Z,31.70
2019-05-19T10:30:15.953Z,32.90
2019-05-19T10:32:46.622Z,31.60
2019-05-19T10:35:15.922Z,31.90
2019-05-19T10:37:45.274Z,32.10
2019-05-19T10:40:15.143Z,29.00
2019-05-19T10:42:44.480Z,31.10
2019-05-19T10:45:14.772Z,29.70
2019-05-19T10:47:44.681Z,27.10
2019-05-19T10:52:48.930Z,29.20
2019-05-19T10:55:34.063Z,32.20
2019-05-19T10:57:52.230Z,30.40
2019-05-19T11:00:23.536Z,29.80
2019-05-19T11:02:52.974Z,30.80
2019-05-19T16:59:51.849Z,16.10
2019-05-19T17:02:21.558Z,16.10
2019-05-19T17:04:51.326Z,16.50
2019-05-19T17:07:21.035Z,17.30
2019-05-19T17:12:31.348Z,16.90
2019-05-19T17:15:01.399Z,16.80
2019-05-19T17:17:31.281Z,17.10
2019-05-19T17:20:01.118Z,17.90
2019-05-19T17:22:34.560Z,17.70
2019-05-19T17:25:04.237Z,17.70
2019-05-19T17:27:33.960Z,16.90
2019-05-19T17:30:03.440Z,16.90
2019-05-19T17:32:33.274Z,16.90
2019-05-19T17:35:03.280Z,16.70
2019-05-19T17:37:35.169Z,16.90
2019-05-19T17:40:04.983Z,16.90
2019-05-19T17:42:37.217Z,17.50
2019-05-19T17:45:06.409Z,16.70
2019-05-19T17:47:36.045Z,16.40
2019-05-19T17:50:06.341Z,16.70
2019-05-19T17:52:36.404Z,16.60
2019-05-19T17:55:06.020Z,16.20
2019-05-19T17:57:36.097Z,16.70
2019-05-19T18:00:06.186Z,16.60
2019-05-19T18:02:35.787Z,16.40
2019-05-19T18:05:12.615Z,16.40
2019-05-19T18:07:42.128Z,15.90
2019-05-19T18:10:11.772Z,16.40
2019-05-19T18:12:42.020Z,16.50
2019-05-19T18:15:11.553Z,17.00
2019-05-19T18:17:41.029Z,16.40
2019-05-19T18:20:22.981Z,16.30
2019-05-19T18:22:43.879Z,16.10
2019-05-19T18:25:15.464Z,16.10
2019-05-19T18:27:44.976Z,16.30
2019-05-19T18:30:14.865Z,15.90
2019-05-19T18:32:44.378Z,16.00
2019-05-19T18:35:14.032Z,15.50
2019-05-19T18:37:44.289Z,15.80
2019-05-19T18:40:13.857Z,15.80
2019-05-19T18:46:32.878Z,15.50
2019-05-19T18:49:05.154Z,15.40
2019-05-19T18:51:34.904Z,15.50
2019-05-19T18:54:08.577Z,15.40
2019-05-19T18:56:38.951Z,15.60
2019-05-19T18:59:24.878Z,15.50
2019-05-19T19:01:58.201Z,15.70
2019-05-19T19:04:34.955Z,15.50
2019-05-19T19:07:17.163Z,15.70
2019-05-19T19:09:49.464Z,15.50
2019-05-19T19:12:31.440Z,15.50
2019-05-19T19:15:04.630Z,15.20
2019-05-19T19:17:33.057Z,15.20
2019-05-19T19:20:09.615Z,14.90
2019-05-19T19:22:47.743Z,15.00
2019-05-19T19:25:19.756Z,15.20
2019-05-19T19:29:12.859Z,15.00
2019-05-19T19:32:17.043Z,15.00
2019-05-19T19:35:07.195Z,15.00
2019-05-19T19:38:44.323Z,15.10
2019-05-19T19:41:20.259Z,14.90
2019-05-19T19:43:57.741Z,15.20
2019-05-19T19:47:40.093Z,15.10
2019-05-19T19:50:07.488Z,15.30
2019-05-19T19:52:37.389Z,15.00
2019-05-19T19:55:07.045Z,14.80
2019-05-19T19:57:36.965Z,15.30
2019-05-19T20:00:17.737Z,15.10
2019-05-19T20:02:38.264Z,15.00
2019-05-19T20:05:07.945Z,15.40
2019-05-19T20:07:38.789Z,15.20
2019-05-19T20:10:08.462Z,15.30
2019-05-19T20:12:38.430Z,15.60
2019-05-19T20:15:08.094Z,14.90
2019-05-19T20:17:37.835Z,15.10
2019-05-19T20:20:07.619Z,15.30
2019-05-19T20:22:37.371Z,14.90
2019-05-19T20:25:16.062Z,15.50
2019-05-19T20:27:45.885Z,15.20
2019-05-19T20:30:15.708Z,15.10
2019-05-19T20:32:47.158Z,14.70
2019-05-19T20:35:17.261Z,15.00
2019-05-19T20:37:46.984Z,15.10
2019-05-19T20:40:25.395Z,15.60
2019-05-19T20:42:56.917Z,15.70
2019-05-19T20:45:52.050Z,15.90
2019-05-19T20:48:24.757Z,15.80
2019-05-19T20:51:00.198Z,15.60
2019-05-19T20:53:29.872Z,15.80
2019-05-19T20:55:59.569Z,15.00
2019-05-19T20:58:29.194Z,15.30
2019-05-19T21:00:59.137Z,15.70
2019-05-19T21:03:28.886Z,15.80
2019-05-19T21:05:58.533Z,15.80
2019-05-19T21:08:28.320Z,15.40
2019-05-19T21:10:58.468Z,15.60
2019-05-19T21:13:30.250Z,15.70
2019-05-19T21:16:00.114Z,15.70
2019-05-19T21:18:29.971Z,15.50
2019-05-19T21:20:59.854Z,15.20
2019-05-19T21:23:29.707Z,15.10
2019-05-19T21:26:01.562Z,15.20
2019-05-19T21:28:31.786Z,15.20
2019-05-19T21:31:06.164Z,14.90
2019-05-19T21:33:36.071Z,14.80
2019-05-19T21:36:05.699Z,14.80
2019-05-19T21:38:36.823Z,14.90
2019-05-19T21:41:11.581Z,14.60
2019-05-19T21:43:41.350Z,14.40
2019-05-19T21:46:11.184Z,14.60
2019-05-19T21:48:41.074Z,14.80
2019-05-19T21:51:10.842Z,14.90
2019-05-19T21:53:40.704Z,15.10
2019-05-19T21:56:10.334Z,14.80
2019-05-19T21:58:40.378Z,14.70
2019-05-19T22:01:22.171Z,14.60
2019-05-19T22:03:43.330Z,14.40
2019-05-19T22:06:13.434Z,14.20
2019-05-19T22:08:43.077Z,14.30
2019-05-19T22:11:13.016Z,14.10
2019-05-19T22:13:42.780Z,13.90
2019-05-19T22:16:13.679Z,14.10
2019-05-19T22:18:44.695Z,14.50
2019-05-19T22:21:14.210Z,14.30
2019-05-19T22:23:43.600Z,14.10
2019-05-19T22:26:13.047Z,14.40
2019-05-19T22:28:44.579Z,14.30
2019-05-19T22:31:14.074Z,14.10
2019-05-19T22:33:43.814Z,14.20
2019-05-19T22:36:13.604Z,14.00
2019-05-19T22:38:43.323Z,14.30
2019-05-19T22:41:12.851Z,14.30
2019-05-19T22:43:42.239Z,14.20
2019-05-19T22:46:11.795Z,14.20
2019-05-19T22:48:41.182Z,14.00
2019-05-19T22:51:10.573Z,14.20
2019-05-19T22:53:40.301Z,14.30
2019-05-19T22:56:09.797Z,14.20
2019-05-19T22:58:41.570Z,14.10
2019-05-19T23:01:10.667Z,13.90
2019-05-19T23:03:40.111Z,13.80
2019-05-19T23:06:09.558Z,13.90
2019-05-19T23:08:44.774Z,14.10
2019-05-19T23:11:14.145Z,13.90
2019-05-19T23:13:43.548Z,13.70
2019-05-19T23:16:13.079Z,13.70
2019-05-19T23:18:42.577Z,13.70
2019-05-19T23:21:12.101Z,14.00
2019-05-19T23:23:41.494Z,13.70
2019-05-19T23:26:11.140Z,13.80
2019-05-19T23:28:40.988Z,13.80
2019-05-19T23:31:10.619Z,13.80
2019-05-19T23:33:39.946Z,13.90
2019-05-19T23:36:09.506Z,13.60
2019-05-19T23:38:39.060Z,13.40
2019-05-19T23:41:08.426Z,13.60
2019-05-19T23:43:37.859Z,13.40
2019-05-19T23:46:07.229Z,13.40
2019-05-19T23:48:36.677Z,13.30
2019-05-19T23:51:06.308Z,13.20
2019-05-19T23:53:35.741Z,13.20
2019-05-19T23:56:05.675Z,13.30
2019-05-19T23:58:35.221Z,13.40
